Denmark, Iowa
Current Conditions -  °F | °C
As of 5:55 AM on Sunday 25 Jan 2015 (Local Time) from KFSW Reporting Station
Light Rain Light Rain  
Wind Chill:   Ceiling: 600
Heat Index:   Visibility: 4mi
Dew Point:   Wind: 0mph
Humidity: 93%   Direction: NA
Pressure: 29.58"   Gusts: NA
Location:  40.74°N, 91.34°W
Report Text: KFSW 251155Z AUTO 00000KT 4SM -RA OVC006 05/04 A2958 RMK AO2 P0002
Loading
Personal Weather Stations






























Interactive Weather Map New forecast layout! Learn more

10-Day Weather Forecast

Advertisements
Track Severe Weather on mobile